Station Historical Data
Daily Summary for April 8, 2017 Units:  Both    English   Metric
« Previous Day
Next Day »
Daily Weekly Monthly Yearly Custom
  High: Low: Average:
Temperature: 48.5 °F /  9.2 °C 28.9 °F /  -1.7 °C 38.8 °F /  3.8 °C
Dew Point: 31.5 °F /  -0.3 °C 18.8 °F /  -7.3 °C 26.9 °F /  -2.8 °C
Humidity: 82% 33% 64%
Wind Speed: 16.0mph /  25.7km/h - 4.6mph /  7.4km/h
Wind Gust: 18.0mph /  29km/h - -
Wind- - West
Pressure: 30.05 in /  1017.5 hPa 29.86 in /  1011.1 hPa -
Precipitation: 0.00 in /  0 mm    
Historical Graphs
 
 
Tabular Data for April 8, 2017
Time Temperature Dew Point Pressure Wind Wind Speed Wind Gust Humidity Rainfall Rate (Hourly)
00:04 34.1 °F /  1.2 °C 24.3 °F /  -4.3 °C 29.86in /  1011.1hPa West 4.0mph /  6.4km/h 9.0mph /  14.5km/h 67% 0.00in /  0mm
00:09 34.0 °F /  1.1 °C 24.2 °F /  -4.3 °C 29.86in /  1011.1hPa West 4.0mph /  6.4km/h 8.0mph /  12.9km/h 67% 0.00in /  0mm
00:14 33.9 °F /  1.1 °C 24.4 °F /  -4.2 °C 29.86in /  1011.1hPa West 2.0mph /  3.2km/h 7.0mph /  11.3km/h 68% 0.00in /  0mm
00:19 33.9 °F /  1.1 °C 24.4 °F /  -4.2 °C 29.87in /  1011.4hPa WNW 5.0mph /  8km/h 7.0mph /  11.3km/h 68% 0.00in /  0mm
00:24 33.8 °F /  1 °C 24.4 °F /  -4.2 °C 29.87in /  1011.4hPa West 4.0mph /  6.4km/h 8.0mph /  12.9km/h 68% 0.00in /  0mm
00:29 33.9 °F /  1.1 °C 24.1 °F /  -4.4 °C 29.87in /  1011.4hPa WNW 5.0mph /  8km/h 6.0mph /  9.7km/h 67% 0.00in /  0mm
00:34 33.8 °F /  1 °C 24.4 °F /  -4.2 °C 29.87in /  1011.4hPa West 3.0mph /  4.8km/h 8.0mph /  12.9km/h 68% 0.00in /  0mm
00:39 33.7 °F /  0.9 °C 24.3 °F /  -4.3 °C 29.87in /  1011.4hPa West 4.0mph /  6.4km/h 7.0mph /  11.3km/h 68% 0.00in /  0mm
00:44 33.8 °F /  1 °C 24.4 °F /  -4.2 °C 29.87in /  1011.4hPa WNW 2.0mph /  3.2km/h 10.0mph /  16.1km/h 68% 0.00in /  0mm
00:49 33.7 °F /  0.9 °C 24.3 °F /  -4.3 °C 29.87in /  1011.4hPa West 4.0mph /  6.4km/h 6.0mph /  9.7km/h 68% 0.00in /  0mm
00:54 33.6 °F /  0.9 °C 24.2 °F /  -4.3 °C 29.87in /  1011.4hPa West 4.0mph /  6.4km/h 8.0mph /  12.9km/h 68% 0.00in /  0mm
00:59 33.4 °F /  0.8 °C 24.3 °F /  -4.3 °C 29.87in /  1011.4hPa West 3.0mph /  4.8km/h 8.0mph /  12.9km/h 69% 0.00in /  0mm
01:04 33.4 °F /  0.8 °C 24.3 °F /  -4.3 °C 29.87in /  1011.4hPa West 3.0mph /  4.8km/h 7.0mph /  11.3km/h 69% 0.00in /  0mm
01:09 33.3 °F /  0.7 °C 24.2 °F /  -4.3 °C 29.87in /  1011.4hPa West 3.0mph /  4.8km/h 6.0mph /  9.7km/h 69% 0.00in /  0mm
01:14 33.1 °F /  0.6 °C 24.0 °F /  -4.4 °C 29.88in /  1011.7hPa West 2.0mph /  3.2km/h 6.0mph /  9.7km/h 69% 0.00in /  0mm
01:19 33.0 °F /  0.6 °C 24.3 °F /  -4.3 °C 29.88in /  1011.7hPa West 4.0mph /  6.4km/h 6.0mph /  9.7km/h 70% 0.00in /  0mm
01:24 32.9 °F /  0.5 °C 24.2 °F /  -4.3 °C 29.87in /  1011.4hPa West 3.0mph /  4.8km/h 6.0mph /  9.7km/h 70% 0.00in /  0mm
01:29 32.8 °F /  0.4 °C 24.4 °F /  -4.2 °C 29.87in /  1011.4hPa West 4.0mph /  6.4km/h 7.0mph /  11.3km/h 71% 0.00in /  0mm
01:34 32.8 °F /  0.4 °C 24.4 °F /  -4.2 °C 29.88in /  1011.7hPa West 4.0mph /  6.4km/h 7.0mph /  11.3km/h 71% 0.00in /  0mm
01:39 32.8 °F /  0.4 °C 24.4 °F /  -4.2 °C 29.88in /  1011.7hPa West 3.0mph /  4.8km/h 7.0mph /  11.3km/h 71% 0.00in /  0mm
01:44 32.7 °F /  0.4 °C 24.3 °F /  -4.3 °C 29.87in /  1011.4hPa WNW 5.0mph /  8km/h 7.0mph /  11.3km/h 71% 0.00in /  0mm
01:49 32.7 °F /  0.4 °C 24.3 °F /  -4.3 °C 29.88in /  1011.7hPa SW 2.0mph /  3.2km/h 8.0mph /  12.9km/h 71% 0.00in /  0mm
01:54 32.7 °F /  0.4 °C 24.3 °F /  -4.3 °C 29.88in /  1011.7hPa West 4.0mph /  6.4km/h 8.0mph /  12.9km/h 71% 0.00in /  0mm
01:59 32.7 °F /  0.4 °C 24.7 °F /  -4.1 °C 29.88in /  1011.7hPa WNW 4.0mph /  6.4km/h 7.0mph /  11.3km/h 72% 0.00in /  0mm
02:04 32.7 °F /  0.4 °C 24.7 °F /  -4.1 °C 29.88in /  1011.7hPa WNW 3.0mph /  4.8km/h 7.0mph /  11.3km/h 72% 0.00in /  0mm
02:09 32.7 °F /  0.4 °C 24.7 °F /  -4.1 °C 29.88in /  1011.7hPa West 5.0mph /  8km/h 6.0mph /  9.7km/h 72% 0.00in /  0mm
02:14 32.6 °F /  0.3 °C 24.6 °F /  -4.1 °C 29.88in /  1011.7hPa West 4.0mph /  6.4km/h 7.0mph /  11.3km/h 72% 0.00in /  0mm
02:19 32.6 °F /  0.3 °C 24.6 °F /  -4.1 °C 29.88in /  1011.7hPa West 5.0mph /  8km/h 7.0mph /  11.3km/h 72% 0.00in /  0mm
02:24 32.5 °F /  0.3 °C 24.8 °F /  -4 °C 29.88in /  1011.7hPa West 4.0mph /  6.4km/h 7.0mph /  11.3km/h 73% 0.00in /  0mm
02:29 32.5 °F /  0.3 °C 24.8 °F /  -4 °C 29.87in /  1011.4hPa WNW 4.0mph /  6.4km/h 7.0mph /  11.3km/h 73% 0.00in /  0mm
02:34 32.5 °F /  0.3 °C 24.8 °F /  -4 °C 29.88in /  1011.7hPa WNW 3.0mph /  4.8km/h 7.0mph /  11.3km/h 73% 0.00in /  0mm
02:39 32.4 °F /  0.2 °C 24.7 °F /  -4.1 °C 29.88in /  1011.7hPa WNW 4.0mph /  6.4km/h 7.0mph /  11.3km/h 73% 0.00in /  0mm
02:44 32.5 °F /  0.3 °C 25.1 °F /  -3.8 °C 29.88in /  1011.7hPa WNW 2.0mph /  3.2km/h 6.0mph /  9.7km/h 74% 0.00in /  0mm
02:49 32.4 °F /  0.2 °C 24.7 °F /  -4.1 °C 29.88in /  1011.7hPa WNW 3.0mph /  4.8km/h 6.0mph /  9.7km/h 73% 0.00in /  0mm
02:54 32.3 °F /  0.2 °C 24.9 °F /  -3.9 °C 29.88in /  1011.7hPa WNW 3.0mph /  4.8km/h 6.0mph /  9.7km/h 74% 0.00in /  0mm
02:59 32.3 °F /  0.2 °C 24.9 °F /  -3.9 °C 29.88in /  1011.7hPa West 4.0mph /  6.4km/h 6.0mph /  9.7km/h 74% 0.00in /  0mm
03:04 32.3 °F /  0.2 °C 24.9 °F /  -3.9 °C 29.88in /  1011.7hPa West 4.0mph /  6.4km/h 7.0mph /  11.3km/h 74% 0.00in /  0mm
03:09 32.3 °F /  0.2 °C 24.9 °F /  -3.9 °C 29.88in /  1011.7hPa WNW 2.0mph /  3.2km/h 7.0mph /  11.3km/h 74% 0.00in /  0mm
03:14 32.2 °F /  0.1 °C 24.8 °F /  -4 °C 29.88in /  1011.7hPa West 2.0mph /  3.2km/h 6.0mph /  9.7km/h 74% 0.00in /  0mm
03:19 32.1 °F /  0.1 °C 25.1 °F /  -3.8 °C 29.88in /  1011.7hPa WNW 2.0mph /  3.2km/h 6.0mph /  9.7km/h 75% 0.00in /  0mm
03:24 32.0 °F /  0 °C 25.0 °F /  -3.9 °C 29.88in /  1011.7hPa WNW 3.0mph /  4.8km/h 6.0mph /  9.7km/h 75% 0.00in /  0mm
03:29 32.0 °F /  0 °C 25.0 °F /  -3.9 °C 29.88in /  1011.7hPa WNW 3.0mph /  4.8km/h 6.0mph /  9.7km/h 75% 0.00in /  0mm
03:34 32.0 °F /  0 °C 25.0 °F /  -3.9 °C 29.88in /  1011.7hPa WNW 3.0mph /  4.8km/h 6.0mph /  9.7km/h 75% 0.00in /  0mm
03:39 32.2 °F /  0.1 °C 25.2 °F /  -3.8 °C 29.89in /  1012.1hPa WNW 3.0mph /  4.8km/h 7.0mph /  11.3km/h 75% 0.00in /  0mm
03:44 32.2 °F /  0.1 °C 25.2 °F /  -3.8 °C 29.89in /  1012.1hPa WNW 8.0mph /  12.9km/h 8.0mph /  12.9km/h 75% 0.00in /  0mm
03:49 32.3 °F /  0.2 °C 25.3 °F /  -3.7 °C 29.89in /  1012.1hPa WNW 3.0mph /  4.8km/h 8.0mph /  12.9km/h 75% 0.00in /  0mm
03:54 32.2 °F /  0.1 °C 25.2 °F /  -3.8 °C 29.89in /  1012.1hPa WNW 3.0mph /  4.8km/h 8.0mph /  12.9km/h 75% 0.00in /  0mm
03:59 32.1 °F /  0.1 °C 25.1 °F /  -3.8 °C 29.89in /  1012.1hPa WNW 2.0mph /  3.2km/h 5.0mph /  8km/h 75% 0.00in /  0mm
04:04 32.0 °F /  0 °C 25.3 °F /  -3.7 °C 29.89in /  1012.1hPa WNW 2.0mph /  3.2km/h 5.0mph /  8km/h 76% 0.00in /  0mm
04:09 32.0 °F /  0 °C 25.3 °F /  -3.7 °C 29.89in /  1012.1hPa WNW 2.0mph /  3.2km/h 5.0mph /  8km/h 76% 0.00in /  0mm
04:14 32.1 °F /  0.1 °C 25.4 °F /  -3.7 °C 29.89in /  1012.1hPa WNW 3.0mph /  4.8km/h 5.0mph /  8km/h 76% 0.00in /  0mm
04:19 32.0 °F /  0 °C 25.3 °F /  -3.7 °C 29.90in /  1012.4hPa WNW 2.0mph /  3.2km/h 6.0mph /  9.7km/h 76% 0.00in /  0mm
04:24 31.9 °F /  -0.1 °C 25.2 °F /  -3.8 °C 29.89in /  1012.1hPa West 2.0mph /  3.2km/h 5.0mph /  8km/h 76% 0.00in /  0mm
04:29 31.9 °F /  -0.1 °C 25.2 °F /  -3.8 °C 29.90in /  1012.4hPa WNW 3.0mph /  4.8km/h 7.0mph /  11.3km/h 76% 0.00in /  0mm
04:34 31.9 °F /  -0.1 °C 25.2 °F /  -3.8 °C 29.90in /  1012.4hPa WNW 3.0mph /  4.8km/h 7.0mph /  11.3km/h 76% 0.00in /  0mm
04:39 31.9 °F /  -0.1 °C 25.2 °F /  -3.8 °C 29.90in /  1012.4hPa WNW 3.0mph /  4.8km/h 4.0mph /  6.4km/h 76% 0.00in /  0mm
04:44 31.7 °F /  -0.2 °C 25.0 °F /  -3.9 °C 29.90in /  1012.4hPa WNW 3.0mph /  4.8km/h 5.0mph /  8km/h 76% 0.00in /  0mm
04:49 31.6 °F /  -0.2 °C 24.9 °F /  -3.9 °C 29.90in /  1012.4hPa West 4.0mph /  6.4km/h 4.0mph /  6.4km/h 76% 0.00in /  0mm
04:54 31.4 °F /  -0.3 °C 24.7 °F /  -4.1 °C 29.91in /  1012.8hPa WNW 3.0mph /  4.8km/h 5.0mph /  8km/h 76% 0.00in /  0mm
04:59 31.3 °F /  -0.4 °C 24.9 °F /  -3.9 °C 29.91in /  1012.8hPa West 3.0mph /  4.8km/h 5.0mph /  8km/h 77% 0.00in /  0mm
05:04 31.2 °F /  -0.4 °C 24.8 °F /  -4 °C 29.91in /  1012.8hPa West 2.0mph /  3.2km/h 5.0mph /  8km/h 77% 0.00in /  0mm
05:09 31.0 °F /  -0.6 °C 24.6 °F /  -4.1 °C 29.91in /  1012.8hPa West 2.0mph /  3.2km/h 4.0mph /  6.4km/h 77% 0.00in /  0mm
05:14 30.9 °F /  -0.6 °C 24.5 °F /  -4.2 °C 29.92in /  1013.1hPa West 2.0mph /  3.2km/h 4.0mph /  6.4km/h 77% 0.00in /  0mm
05:19 30.8 °F /  -0.7 °C 24.4 °F /  -4.2 °C 29.92in /  1013.1hPa West 1.0mph /  1.6km/h 3.0mph /  4.8km/h 77% 0.00in /  0mm
05:24 30.6 °F /  -0.8 °C 24.6 °F /  -4.1 °C 29.92in /  1013.1hPa West 1.0mph /  1.6km/h 4.0mph /  6.4km/h 78% 0.00in /  0mm
05:29 30.3 °F /  -0.9 °C 24.3 °F /  -4.3 °C 29.92in /  1013.1hPa West 1.0mph /  1.6km/h 4.0mph /  6.4km/h 78% 0.00in /  0mm
05:34 30.1 °F /  -1.1 °C 24.4 °F /  -4.2 °C 29.92in /  1013.1hPa West 1.0mph /  1.6km/h 3.0mph /  4.8km/h 79% 0.00in /  0mm
05:39 29.9 °F /  -1.2 °C 24.2 °F /  -4.3 °C 29.92in /  1013.1hPa West 1.0mph /  1.6km/h 3.0mph /  4.8km/h 79% 0.00in /  0mm
05:44 29.9 °F /  -1.2 °C 24.5 °F /  -4.2 °C 29.93in /  1013.4hPa West 1.0mph /  1.6km/h 5.0mph /  8km/h 80% 0.00in /  0mm
05:49 29.9 °F /  -1.2 °C 24.5 °F /  -4.2 °C 29.93in /  1013.4hPa West 2.0mph /  3.2km/h 4.0mph /  6.4km/h 80% 0.00in /  0mm
05:54 29.9 °F /  -1.2 °C 24.5 °F /  -4.2 °C 29.93in /  1013.4hPa Calm   3.0mph /  4.8km/h 80% 0.00in /  0mm
05:59 29.6 °F /  -1.3 °C 24.2 °F /  -4.3 °C 29.93in /  1013.4hPa West 1.0mph /  1.6km/h 3.0mph /  4.8km/h 80% 0.00in /  0mm
06:04 29.6 °F /  -1.3 °C 24.5 °F /  -4.2 °C 29.93in /  1013.4hPa West 1.0mph /  1.6km/h 4.0mph /  6.4km/h 81% 0.00in /  0mm
06:09 29.6 °F /  -1.3 °C 24.5 °F /  -4.2 °C 29.93in /  1013.4hPa West 1.0mph /  1.6km/h 3.0mph /  4.8km/h 81% 0.00in /  0mm
06:14 29.6 °F /  -1.3 °C 24.5 °F /  -4.2 °C 29.94in /  1013.8hPa WNW 2.0mph /  3.2km/h 3.0mph /  4.8km/h 81% 0.00in /  0mm
06:19 29.5 °F /  -1.4 °C 24.4 °F /  -4.2 °C 29.94in /  1013.8hPa West 2.0mph /  3.2km/h 4.0mph /  6.4km/h 81% 0.00in /  0mm
06:24 29.6 °F /  -1.3 °C 24.5 °F /  -4.2 °C 29.94in /  1013.8hPa West 1.0mph /  1.6km/h 3.0mph /  4.8km/h 81% 0.00in /  0mm
06:29 29.7 °F /  -1.3 °C 24.6 °F /  -4.1 °C 29.95in /  1014.1hPa West 2.0mph /  3.2km/h 5.0mph /  8km/h 81% 0.00in /  0mm
06:34 29.6 °F /  -1.3 °C 24.5 °F /  -4.2 °C 29.95in /  1014.1hPa West 2.0mph /  3.2km/h 5.0mph /  8km/h 81% 0.00in /  0mm
06:39 29.5 °F /  -1.4 °C 24.4 °F /  -4.2 °C 29.95in /  1014.1hPa West 1.0mph /  1.6km/h 4.0mph /  6.4km/h 81% 0.00in /  0mm
06:44 29.1 °F /  -1.6 °C 24.0 °F /  -4.4 °C 29.96in /  1014.4hPa West 1.0mph /  1.6km/h 3.0mph /  4.8km/h 81% 0.00in /  0mm
06:49 29.0 °F /  -1.7 °C 24.2 °F /  -4.3 °C 29.96in /  1014.4hPa West 1.0mph /  1.6km/h 3.0mph /  4.8km/h 82% 0.00in /  0mm
06:54 29.0 °F /  -1.7 °C 24.2 °F /  -4.3 °C 29.96in /  1014.4hPa Calm     82% 0.00in /  0mm
06:59 29.1 °F /  -1.6 °C 24.3 °F /  -4.3 °C 29.96in /  1014.4hPa Calm     82% 0.00in /  0mm
07:04 28.9 °F /  -1.7 °C 24.1 °F /  -4.4 °C 29.96in /  1014.4hPa Calm     82% 0.00in /  0mm
07:09 29.1 °F /  -1.6 °C 24.3 °F /  -4.3 °C 29.96in /  1014.4hPa Calm     82% 0.00in /  0mm
07:14 29.4 °F /  -1.4 °C 24.6 °F /  -4.1 °C 29.96in /  1014.4hPa West 2.0mph /  3.2km/h 5.0mph /  8km/h 82% 0.00in /  0mm
07:19 29.8 °F /  -1.2 °C 25.0 °F /  -3.9 °C 29.97in /  1014.8hPa West 4.0mph /  6.4km/h 4.0mph /  6.4km/h 82% 0.00in /  0mm
07:24 30.3 °F /  -0.9 °C 25.2 °F /  -3.8 °C 29.97in /  1014.8hPa WNW 3.0mph /  4.8km/h 5.0mph /  8km/h 81% 0.00in /  0mm
07:29 30.7 °F /  -0.7 °C 25.6 °F /  -3.6 °C 29.97in /  1014.8hPa West 3.0mph /  4.8km/h 5.0mph /  8km/h 81% 0.00in /  0mm
07:34 31.0 °F /  -0.6 °C 25.6 °F /  -3.6 °C 29.97in /  1014.8hPa West 3.0mph /  4.8km/h 5.0mph /  8km/h 80% 0.00in /  0mm
07:39 31.4 °F /  -0.3 °C 25.6 °F /  -3.6 °C 29.98in /  1015.1hPa West 3.0mph /  4.8km/h 5.0mph /  8km/h 79% 0.00in /  0mm
07:44 31.7 °F /  -0.2 °C 25.9 °F /  -3.4 °C 29.98in /  1015.1hPa WNW 2.0mph /  3.2km/h 6.0mph /  9.7km/h 79% 0.00in /  0mm
07:49 32.1 °F /  0.1 °C 26.3 °F /  -3.2 °C 29.99in /  1015.5hPa WSW 2.0mph /  3.2km/h 8.0mph /  12.9km/h 79% 0.00in /  0mm
07:54 32.5 °F /  0.3 °C 26.4 °F /  -3.1 °C 29.99in /  1015.5hPa West 3.0mph /  4.8km/h 6.0mph /  9.7km/h 78% 0.00in /  0mm
07:59 32.9 °F /  0.5 °C 26.8 °F /  -2.9 °C 29.99in /  1015.5hPa West 3.0mph /  4.8km/h 7.0mph /  11.3km/h 78% 0.00in /  0mm
08:04 33.2 °F /  0.7 °C 26.8 °F /  -2.9 °C 29.99in /  1015.5hPa WNW 4.0mph /  6.4km/h 7.0mph /  11.3km/h 77% 0.00in /  0mm
08:09 33.6 °F /  0.9 °C 27.2 °F /  -2.7 °C 29.99in /  1015.5hPa WNW 4.0mph /  6.4km/h 7.0mph /  11.3km/h 77% 0.00in /  0mm
08:14 33.9 °F /  1.1 °C 27.1 °F /  -2.7 °C 29.99in /  1015.5hPa West 5.0mph /  8km/h 6.0mph /  9.7km/h 76% 0.00in /  0mm
08:19 34.3 °F /  1.3 °C 27.5 °F /  -2.5 °C 30.00in /  1015.8hPa WNW 4.0mph /  6.4km/h 6.0mph /  9.7km/h 76% 0.00in /  0mm
08:24 34.6 °F /  1.4 °C 27.5 °F /  -2.5 °C 30.00in /  1015.8hPa WNW 6.0mph /  9.7km/h 8.0mph /  12.9km/h 75% 0.00in /  0mm
08:29 35.0 °F /  1.7 °C 27.9 °F /  -2.3 °C 30.00in /  1015.8hPa WNW 4.0mph /  6.4km/h 8.0mph /  12.9km/h 75% 0.00in /  0mm
08:34 35.6 °F /  2 °C 27.8 °F /  -2.3 °C 30.00in /  1015.8hPa WNW 3.0mph /  4.8km/h 7.0mph /  11.3km/h 73% 0.00in /  0mm
08:39 36.0 °F /  2.2 °C 27.8 °F /  -2.3 °C 30.00in /  1015.8hPa WNW 2.0mph /  3.2km/h 8.0mph /  12.9km/h 72% 0.00in /  0mm
08:44 36.6 °F /  2.6 °C 28.1 °F /  -2.2 °C 30.00in /  1015.8hPa NNW 2.0mph /  3.2km/h 6.0mph /  9.7km/h 71% 0.00in /  0mm
08:49 37.3 °F /  2.9 °C 28.1 °F /  -2.2 °C 30.00in /  1015.8hPa WNW 3.0mph /  4.8km/h 6.0mph /  9.7km/h 69% 0.00in /  0mm
08:54 37.4 °F /  3 °C 27.8 °F /  -2.3 °C 30.00in /  1015.8hPa NW 5.0mph /  8km/h 7.0mph /  11.3km/h 68% 0.00in /  0mm
08:59 37.9 °F /  3.3 °C 27.9 °F /  -2.3 °C 30.00in /  1015.8hPa NW 3.0mph /  4.8km/h 7.0mph /  11.3km/h 67% 0.00in /  0mm
09:04 38.4 °F /  3.6 °C 27.7 °F /  -2.4 °C 30.00in /  1015.8hPa NW 4.0mph /  6.4km/h 7.0mph /  11.3km/h 65% 0.00in /  0mm
09:09 38.5 °F /  3.6 °C 27.4 °F /  -2.6 °C 30.00in /  1015.8hPa NW 4.0mph /  6.4km/h 7.0mph /  11.3km/h 64% 0.00in /  0mm
09:14 38.5 °F /  3.6 °C 27.0 °F /  -2.8 °C 30.00in /  1015.8hPa NW 6.0mph /  9.7km/h 7.0mph /  11.3km/h 63% 0.00in /  0mm
09:19 38.6 °F /  3.7 °C 26.3 °F /  -3.2 °C 30.00in /  1015.8hPa North 5.0mph /  8km/h 8.0mph /  12.9km/h 61% 0.00in /  0mm
09:24 38.9 °F /  3.8 °C 27.0 °F /  -2.8 °C 30.00in /  1015.8hPa NNW 5.0mph /  8km/h 7.0mph /  11.3km/h 62% 0.00in /  0mm
09:29 38.9 °F /  3.8 °C 26.2 °F /  -3.2 °C 30.00in /  1015.8hPa NNW 4.0mph /  6.4km/h 8.0mph /  12.9km/h 60% 0.00in /  0mm
09:34 39.2 °F /  4 °C 26.5 °F /  -3.1 °C 30.00in /  1015.8hPa NW 4.0mph /  6.4km/h 9.0mph /  14.5km/h 60% 0.00in /  0mm
09:39 39.4 °F /  4.1 °C 26.7 °F /  -2.9 °C 30.00in /  1015.8hPa NW 4.0mph /  6.4km/h 9.0mph /  14.5km/h 60% 0.00in /  0mm
09:44 39.6 °F /  4.2 °C 26.0 °F /  -3.3 °C 30.01in /  1016.1hPa NW 5.0mph /  8km/h 9.0mph /  14.5km/h 58% 0.00in /  0mm
09:49 39.6 °F /  4.2 °C 26.4 °F /  -3.1 °C 30.01in /  1016.1hPa NW 2.0mph /  3.2km/h 10.0mph /  16.1km/h 59% 0.00in /  0mm
09:54 40.0 °F /  4.4 °C 26.8 °F /  -2.9 °C 30.01in /  1016.1hPa WNW 4.0mph /  6.4km/h 8.0mph /  12.9km/h 59% 0.00in /  0mm
09:59 40.5 °F /  4.7 °C 26.4 °F /  -3.1 °C 30.01in /  1016.1hPa NW 4.0mph /  6.4km/h 8.0mph /  12.9km/h 57% 0.00in /  0mm
10:04 40.2 °F /  4.6 °C 26.2 °F /  -3.2 °C 30.01in /  1016.1hPa WNW 4.0mph /  6.4km/h 9.0mph /  14.5km/h 57% 0.00in /  0mm
10:09 40.4 °F /  4.7 °C 26.4 °F /  -3.1 °C 30.02in /  1016.5hPa WNW 5.0mph /  8km/h 9.0mph /  14.5km/h 57% 0.00in /  0mm
10:14 40.6 °F /  4.8 °C 26.5 °F /  -3.1 °C 30.02in /  1016.5hPa WNW 4.0mph /  6.4km/h 9.0mph /  14.5km/h 57% 0.02in /  0.51mm
10:19 41.3 °F /  5.2 °C 25.9 °F /  -3.4 °C 30.02in /  1016.5hPa WNW 4.0mph /  6.4km/h 9.0mph /  14.5km/h 54% 0.02in /  0.51mm
10:24 41.0 °F /  5 °C 24.7 °F /  -4.1 °C 30.02in /  1016.5hPa NNW 4.0mph /  6.4km/h 9.0mph /  14.5km/h 52% 0.03in /  0.76mm
10:29 41.4 °F /  5.2 °C 26.0 °F /  -3.3 °C 30.02in /  1016.5hPa WNW 5.0mph /  8km/h 10.0mph /  16.1km/h 54% 0.03in /  0.76mm
10:34 41.2 °F /  5.1 °C 25.3 °F /  -3.7 °C 30.02in /  1016.5hPa NW 4.0mph /  6.4km/h 10.0mph /  16.1km/h 53% 0.04in /  1.02mm
10:39 41.9 °F /  5.5 °C 26.4 °F /  -3.1 °C 30.02in /  1016.5hPa West 5.0mph /  8km/h 8.0mph /  12.9km/h 54% 0.05in /  1.27mm
10:44 42.0 °F /  5.6 °C 26.1 °F /  -3.3 °C 30.03in /  1016.8hPa NW 3.0mph /  4.8km/h 7.0mph /  11.3km/h 53% 0.05in /  1.27mm
10:49 42.5 °F /  5.8 °C 27.0 °F /  -2.8 °C 30.03in /  1016.8hPa WNW 6.0mph /  9.7km/h 8.0mph /  12.9km/h 54% 0.06in /  1.52mm
10:54 42.2 °F /  5.7 °C 24.4 °F /  -4.2 °C 30.03in /  1016.8hPa WNW 3.0mph /  4.8km/h 10.0mph /  16.1km/h 49% 0.07in /  1.78mm
10:59 42.4 °F /  5.8 °C 26.0 °F /  -3.3 °C 30.03in /  1016.8hPa WNW 4.0mph /  6.4km/h 9.0mph /  14.5km/h 52% 0.07in /  1.78mm
11:04 42.7 °F /  5.9 °C 25.8 °F /  -3.4 °C 30.03in /  1016.8hPa WNW 5.0mph /  8km/h 11.0mph /  17.7km/h 51% 0.08in /  2.03mm
11:09 42.5 °F /  5.8 °C 23.7 °F /  -4.6 °C 30.03in /  1016.8hPa WNW 6.0mph /  9.7km/h 12.0mph /  19.3km/h 47% 0.08in /  2.03mm
11:14 42.8 °F /  6 °C 22.9 °F /  -5.1 °C 30.03in /  1016.8hPa WNW 7.0mph /  11.3km/h 14.0mph /  22.5km/h 45% 0.07in /  1.78mm
11:19 42.9 °F /  6.1 °C 23.5 °F /  -4.7 °C 30.04in /  1017.2hPa NW 6.0mph /  9.7km/h 14.0mph /  22.5km/h 46% 0.07in /  1.78mm
11:24 43.4 °F /  6.3 °C 24.5 °F /  -4.2 °C 30.03in /  1016.8hPa West 7.0mph /  11.3km/h 10.0mph /  16.1km/h 47% 0.07in /  1.78mm
11:29 42.9 °F /  6.1 °C 23.0 °F /  -5 °C 30.04in /  1017.2hPa NW 4.0mph /  6.4km/h 10.0mph /  16.1km/h 45% 0.07in /  1.78mm
11:34 43.4 °F /  6.3 °C 21.8 °F /  -5.7 °C 30.04in /  1017.2hPa NW 5.0mph /  8km/h 10.0mph /  16.1km/h 42% 0.07in /  1.78mm
11:39 43.7 °F /  6.5 °C 22.6 °F /  -5.2 °C 30.04in /  1017.2hPa NW 5.0mph /  8km/h 10.0mph /  16.1km/h 43% 0.06in /  1.52mm
11:44 44.1 °F /  6.7 °C 23.0 °F /  -5 °C 30.04in /  1017.2hPa WNW 5.0mph /  8km/h 10.0mph /  16.1km/h 43% 0.07in /  1.78mm
11:49 44.0 °F /  6.7 °C 21.8 °F /  -5.7 °C 30.04in /  1017.2hPa WNW 6.0mph /  9.7km/h 12.0mph /  19.3km/h 41% 0.06in /  1.52mm
11:54 44.3 °F /  6.8 °C 23.7 °F /  -4.6 °C 30.04in /  1017.2hPa NW 4.0mph /  6.4km/h 10.0mph /  16.1km/h 44% 0.06in /  1.52mm
11:59 44.1 °F /  6.7 °C 22.4 °F /  -5.3 °C 30.04in /  1017.2hPa West 6.0mph /  9.7km/h 10.0mph /  16.1km/h 42% 0.06in /  1.52mm
12:04 45.1 °F /  7.3 °C 25.5 °F /  -3.6 °C 30.04in /  1017.2hPa NW 6.0mph /  9.7km/h 11.0mph /  17.7km/h 46% 0.06in /  1.52mm
12:09 45.4 °F /  7.4 °C 24.2 °F /  -4.3 °C 30.03in /  1016.8hPa NW 5.0mph /  8km/h 11.0mph /  17.7km/h 43% 0.06in /  1.52mm
12:14 45.9 °F /  7.7 °C 22.9 °F /  -5.1 °C 30.03in /  1016.8hPa NW 4.0mph /  6.4km/h 8.0mph /  12.9km/h 40% 0.06in /  1.52mm
12:19 45.8 °F /  7.7 °C 24.0 °F /  -4.4 °C 30.03in /  1016.8hPa NW 4.0mph /  6.4km/h 8.0mph /  12.9km/h 42% 0.06in /  1.52mm
12:24 45.8 °F /  7.7 °C 23.4 °F /  -4.8 °C 30.03in /  1016.8hPa NNW 4.0mph /  6.4km/h 10.0mph /  16.1km/h 41% 0.05in /  1.27mm
12:29 46.2 °F /  7.9 °C 23.8 °F /  -4.6 °C 30.03in /  1016.8hPa NW 5.0mph /  8km/h 10.0mph /  16.1km/h 41% 0.05in /  1.27mm
12:34 46.2 °F /  7.9 °C 20.0 °F /  -6.7 °C 30.03in /  1016.8hPa West 7.0mph /  11.3km/h 10.0mph /  16.1km/h 35% 0.04in /  1.02mm
12:39 46.0 °F /  7.8 °C 22.4 °F /  -5.3 °C 30.03in /  1016.8hPa NNW 6.0mph /  9.7km/h 10.0mph /  16.1km/h 39% 0.04in /  1.02mm
12:44 47.8 °F /  8.8 °C 24.0 °F /  -4.4 °C 30.03in /  1016.8hPa NNW 3.0mph /  4.8km/h 11.0mph /  17.7km/h 39% 0.03in /  0.76mm
12:49 46.4 °F /  8 °C 20.2 °F /  -6.6 °C 30.03in /  1016.8hPa WNW 2.0mph /  3.2km/h 10.0mph /  16.1km/h 35% 0.03in /  0.76mm
12:54 46.4 °F /  8 °C 18.8 °F /  -7.3 °C 30.03in /  1016.8hPa WNW 2.0mph /  3.2km/h 12.0mph /  19.3km/h 33% 0.02in /  0.51mm
12:59 46.8 °F /  8.2 °C 21.2 °F /  -6 °C 30.03in /  1016.8hPa North 2.0mph /  3.2km/h 10.0mph /  16.1km/h 36% 0.02in /  0.51mm
13:04 47.2 °F /  8.4 °C 22.9 °F /  -5.1 °C 30.04in /  1017.2hPa NW 5.0mph /  8km/h 10.0mph /  16.1km/h 38% 0.01in /  0.25mm
13:09 47.1 °F /  8.4 °C 22.8 °F /  -5.1 °C 30.04in /  1017.2hPa NW 5.0mph /  8km/h 13.0mph /  20.9km/h 38% 0.01in /  0.25mm
13:14 46.5 °F /  8.1 °C 20.9 °F /  -6.2 °C 30.04in /  1017.2hPa WNW 6.0mph /  9.7km/h 13.0mph /  20.9km/h 36% 0.00in /  0mm
13:19 46.7 °F /  8.2 °C 23.6 °F /  -4.7 °C 30.04in /  1017.2hPa WNW 5.0mph /  8km/h 11.0mph /  17.7km/h 40% 0.00in /  0mm
13:24 47.2 °F /  8.4 °C 23.5 °F /  -4.7 °C 30.04in /  1017.2hPa NW 4.0mph /  6.4km/h 11.0mph /  17.7km/h 39% 0.00in /  0mm
13:29 48.0 °F /  8.9 °C 23.6 °F /  -4.7 °C 30.03in /  1016.8hPa NW 4.0mph /  6.4km/h 11.0mph /  17.7km/h 38% 0.00in /  0mm
13:34 48.5 °F /  9.2 °C 22.7 °F /  -5.2 °C 30.03in /  1016.8hPa WNW 5.0mph /  8km/h 11.0mph /  17.7km/h 36% 0.00in /  0mm
13:39 48.5 °F /  9.2 °C 21.4 °F /  -5.9 °C 30.03in /  1016.8hPa WNW 6.0mph /  9.7km/h 13.0mph /  20.9km/h 34% 0.00in /  0mm
13:44 48.3 °F /  9.1 °C 29.0 °F /  -1.7 °C 30.03in /  1016.8hPa West 5.0mph /  8km/h 12.0mph /  19.3km/h 47% 0.00in /  0mm
13:49 46.7 °F /  8.2 °C 28.5 °F /  -1.9 °C 30.03in /  1016.8hPa West 7.0mph /  11.3km/h 15.0mph /  24.1km/h 49% 0.00in /  0mm
13:54 46.7 °F /  8.2 °C 30.0 °F /  -1.1 °C 30.03in /  1016.8hPa South 6.0mph /  9.7km/h 14.0mph /  22.5km/h 52% 0.00in /  0mm
13:59 46.4 °F /  8 °C 29.2 °F /  -1.6 °C 30.03in /  1016.8hPa West 7.0mph /  11.3km/h 13.0mph /  20.9km/h 51% 0.00in /  0mm
14:04 46.1 °F /  7.8 °C 28.5 °F /  -1.9 °C 30.03in /  1016.8hPa SSW 8.0mph /  12.9km/h 13.0mph /  20.9km/h 50% 0.00in /  0mm
14:09 45.7 °F /  7.6 °C 29.5 °F /  -1.4 °C 30.03in /  1016.8hPa SW 8.0mph /  12.9km/h 14.0mph /  22.5km/h 53% 0.00in /  0mm
14:14 45.0 °F /  7.2 °C 30.2 °F /  -1 °C 30.03in /  1016.8hPa SW 8.0mph /  12.9km/h 17.0mph /  27.4km/h 56% 0.00in /  0mm
14:19 45.8 °F /  7.7 °C 31.4 °F /  -0.3 °C 30.03in /  1016.8hPa SW 8.0mph /  12.9km/h 17.0mph /  27.4km/h 57% 0.00in /  0mm
14:24 46.3 °F /  7.9 °C 31.0 °F /  -0.6 °C 30.03in /  1016.8hPa SSW 6.0mph /  9.7km/h 10.0mph /  16.1km/h 55% 0.00in /  0mm
14:29 45.9 °F /  7.7 °C 31.5 °F /  -0.3 °C 30.03in /  1016.8hPa SSE 5.0mph /  8km/h 14.0mph /  22.5km/h 57% 0.00in /  0mm
14:34 45.1 °F /  7.3 °C 29.9 °F /  -1.2 °C 30.03in /  1016.8hPa South 8.0mph /  12.9km/h 16.0mph /  25.7km/h 55% 0.00in /  0mm
14:39 45.4 °F /  7.4 °C 28.8 °F /  -1.8 °C 30.03in /  1016.8hPa WSW 8.0mph /  12.9km/h 16.0mph /  25.7km/h 52% 0.00in /  0mm
14:44 45.0 °F /  7.2 °C 28.9 °F /  -1.7 °C 30.03in /  1016.8hPa WSW 8.0mph /  12.9km/h 16.0mph /  25.7km/h 53% 0.00in /  0mm
14:49 45.2 °F /  7.3 °C 28.6 °F /  -1.9 °C 30.03in /  1016.8hPa WSW 9.0mph /  14.5km/h 16.0mph /  25.7km/h 52% 0.00in /  0mm
14:54 46.5 °F /  8.1 °C 30.7 °F /  -0.7 °C 30.03in /  1016.8hPa SW 3.0mph /  4.8km/h 12.0mph /  19.3km/h 54% 0.00in /  0mm
14:59 46.2 °F /  7.9 °C 28.6 °F /  -1.9 °C 30.03in /  1016.8hPa West 6.0mph /  9.7km/h 13.0mph /  20.9km/h 50% 0.00in /  0mm
15:04 45.4 °F /  7.4 °C 27.8 °F /  -2.3 °C 30.03in /  1016.8hPa West 9.0mph /  14.5km/h 17.0mph /  27.4km/h 50% 0.00in /  0mm
15:09 45.5 °F /  7.5 °C 28.4 °F /  -2 °C 30.03in /  1016.8hPa WSW 9.0mph /  14.5km/h 17.0mph /  27.4km/h 51% 0.00in /  0mm
15:14 46.3 °F /  7.9 °C 29.1 °F /  -1.6 °C 30.04in /  1017.2hPa WSW 8.0mph /  12.9km/h 15.0mph /  24.1km/h 51% 0.00in /  0mm
15:19 45.6 °F /  7.6 °C 28.0 °F /  -2.2 °C 30.04in /  1017.2hPa SW 12.0mph /  19.3km/h 15.0mph /  24.1km/h 50% 0.00in /  0mm
15:24 45.5 °F /  7.5 °C 27.4 °F /  -2.6 °C 30.04in /  1017.2hPa WSW 10.0mph /  16.1km/h 16.0mph /  25.7km/h 49% 0.00in /  0mm
15:29 45.6 °F /  7.6 °C 27.5 °F /  -2.5 °C 30.04in /  1017.2hPa WSW 11.0mph /  17.7km/h 16.0mph /  25.7km/h 49% 0.00in /  0mm
15:34 45.6 °F /  7.6 °C 28.0 °F /  -2.2 °C 30.04in /  1017.2hPa WSW 5.0mph /  8km/h 15.0mph /  24.1km/h 50% 0.00in /  0mm
15:39 45.6 °F /  7.6 °C 28.0 °F /  -2.2 °C 30.04in /  1017.2hPa WSW 9.0mph /  14.5km/h 18.0mph /  29km/h 50% 0.00in /  0mm
15:44 45.6 °F /  7.6 °C 28.0 °F /  -2.2 °C 30.04in /  1017.2hPa WSW 10.0mph /  16.1km/h 18.0mph /  29km/h 50% 0.00in /  0mm
15:49 45.5 °F /  7.5 °C 26.4 °F /  -3.1 °C 30.03in /  1016.8hPa WSW 10.0mph /  16.1km/h 16.0mph /  25.7km/h 47% 0.00in /  0mm
15:54 46.1 °F /  7.8 °C 28.0 °F /  -2.2 °C 30.03in /  1016.8hPa SW 7.0mph /  11.3km/h 15.0mph /  24.1km/h 49% 0.00in /  0mm
15:59 46.4 °F /  8 °C 27.8 °F /  -2.3 °C 30.03in /  1016.8hPa SW 8.0mph /  12.9km/h 18.0mph /  29km/h 48% 0.00in /  0mm
16:04 46.2 °F /  7.9 °C 28.1 °F /  -2.2 °C 30.03in /  1016.8hPa SW 8.0mph /  12.9km/h 18.0mph /  29km/h 49% 0.00in /  0mm
16:09 46.0 °F /  7.8 °C 27.9 °F /  -2.3 °C 30.03in /  1016.8hPa SW 9.0mph /  14.5km/h 15.0mph /  24.1km/h 49% 0.00in /  0mm
16:14 45.8 °F /  7.7 °C 27.2 °F /  -2.7 °C 30.03in /  1016.8hPa West 6.0mph /  9.7km/h 17.0mph /  27.4km/h 48% 0.00in /  0mm
16:19 46.1 °F /  7.8 °C 28.5 °F /  -1.9 °C 30.03in /  1016.8hPa SSW 9.0mph /  14.5km/h 15.0mph /  24.1km/h 50% 0.00in /  0mm
16:24 46.1 °F /  7.8 °C 28.0 °F /  -2.2 °C 30.04in /  1017.2hPa West 9.0mph /  14.5km/h 15.0mph /  24.1km/h 49% 0.00in /  0mm
16:29 46.0 °F /  7.8 °C 27.4 °F /  -2.6 °C 30.03in /  1016.8hPa SW 8.0mph /  12.9km/h 14.0mph /  22.5km/h 48% 0.00in /  0mm
16:34 45.8 °F /  7.7 °C 26.2 °F /  -3.2 °C 30.03in /  1016.8hPa SW 14.0mph /  22.5km/h 16.0mph /  25.7km/h 46% 0.00in /  0mm
16:39 45.7 °F /  7.6 °C 26.6 °F /  -3 °C 30.03in /  1016.8hPa West 9.0mph /  14.5km/h 15.0mph /  24.1km/h 47% 0.00in /  0mm
16:44 46.0 °F /  7.8 °C 26.9 °F /  -2.8 °C 30.03in /  1016.8hPa SW 10.0mph /  16.1km/h 16.0mph /  25.7km/h 47% 0.00in /  0mm
16:49 46.1 °F /  7.8 °C 28.5 °F /  -1.9 °C 30.03in /  1016.8hPa SW 9.0mph /  14.5km/h 17.0mph /  27.4km/h 50% 0.00in /  0mm
16:54 46.3 °F /  7.9 °C 28.7 °F /  -1.8 °C 30.02in /  1016.5hPa SW 8.0mph /  12.9km/h 17.0mph /  27.4km/h 50% 0.00in /  0mm
16:59 46.0 °F /  7.8 °C 28.4 °F /  -2 °C 30.02in /  1016.5hPa SW 8.0mph /  12.9km/h 15.0mph /  24.1km/h 50% 0.00in /  0mm
17:04 45.8 °F /  7.7 °C 28.2 °F /  -2.1 °C 30.02in /  1016.5hPa SW 9.0mph /  14.5km/h 18.0mph /  29km/h 50% 0.00in /  0mm
17:09 45.4 °F /  7.4 °C 27.8 °F /  -2.3 °C 30.02in /  1016.5hPa WSW 9.0mph /  14.5km/h 18.0mph /  29km/h 50% 0.00in /  0mm
17:14 45.2 °F /  7.3 °C 28.6 °F /  -1.9 °C 30.02in /  1016.5hPa SW 9.0mph /  14.5km/h 16.0mph /  25.7km/h 52% 0.00in /  0mm
17:19 44.9 °F /  7.2 °C 29.2 °F /  -1.6 °C 30.02in /  1016.5hPa WSW 4.0mph /  6.4km/h 18.0mph /  29km/h 54% 0.00in /  0mm
17:24 44.9 °F /  7.2 °C 28.3 °F /  -2.1 °C 30.02in /  1016.5hPa SW 9.0mph /  14.5km/h 15.0mph /  24.1km/h 52% 0.00in /  0mm
17:29 44.9 °F /  7.2 °C 27.8 °F /  -2.3 °C 30.02in /  1016.5hPa WSW 5.0mph /  8km/h 14.0mph /  22.5km/h 51% 0.00in /  0mm
17:34 45.2 °F /  7.3 °C 29.1 °F /  -1.6 °C 30.02in /  1016.5hPa WSW 16.0mph /  25.7km/h 16.0mph /  25.7km/h 53% 0.00in /  0mm
17:39 45.1 °F /  7.3 °C 28.5 °F /  -1.9 °C 30.02in /  1016.5hPa SW 12.0mph /  19.3km/h 17.0mph /  27.4km/h 52% 0.00in /  0mm
17:44 45.0 °F /  7.2 °C 29.3 °F /  -1.5 °C 30.02in /  1016.5hPa WSW 9.0mph /  14.5km/h 17.0mph /  27.4km/h 54% 0.00in /  0mm
17:49 45.1 °F /  7.3 °C 29.0 °F /  -1.7 °C 30.02in /  1016.5hPa WSW 8.0mph /  12.9km/h 15.0mph /  24.1km/h 53% 0.00in /  0mm
17:54 45.4 °F /  7.4 °C 28.8 °F /  -1.8 °C 30.03in /  1016.8hPa WSW 6.0mph /  9.7km/h 12.0mph /  19.3km/h 52% 0.00in /  0mm
17:59 45.2 °F /  7.3 °C 28.6 °F /  -1.9 °C 30.02in /  1016.5hPa WSW 6.0mph /  9.7km/h 13.0mph /  20.9km/h 52% 0.00in /  0mm
18:04 45.2 °F /  7.3 °C 29.5 °F /  -1.4 °C 30.02in /  1016.5hPa WSW 7.0mph /  11.3km/h 13.0mph /  20.9km/h 54% 0.00in /  0mm
18:09 44.8 °F /  7.1 °C 29.2 °F /  -1.6 °C 30.03in /  1016.8hPa WSW 8.0mph /  12.9km/h 16.0mph /  25.7km/h 54% 0.00in /  0mm
18:14 44.5 °F /  6.9 °C 29.3 °F /  -1.5 °C 30.03in /  1016.8hPa West 6.0mph /  9.7km/h 15.0mph /  24.1km/h 55% 0.00in /  0mm
18:19 44.1 °F /  6.7 °C 29.4 °F /  -1.4 °C 30.02in /  1016.5hPa West 5.0mph /  8km/h 16.0mph /  25.7km/h 56% 0.00in /  0mm
18:24 44.0 °F /  6.7 °C 30.6 °F /  -0.8 °C 30.02in /  1016.5hPa WSW 5.0mph /  8km/h 9.0mph /  14.5km/h 59% 0.00in /  0mm
18:29 44.0 °F /  6.7 °C 30.2 °F /  -1 °C 30.02in /  1016.5hPa SW 6.0mph /  9.7km/h 13.0mph /  20.9km/h 58% 0.00in /  0mm
18:34 43.8 °F /  6.6 °C 30.8 °F /  -0.7 °C 30.02in /  1016.5hPa SSW 5.0mph /  8km/h 8.0mph /  12.9km/h 60% 0.00in /  0mm
18:39 43.6 °F /  6.4 °C 30.6 °F /  -0.8 °C 30.02in /  1016.5hPa SSW 5.0mph /  8km/h 11.0mph /  17.7km/h 60% 0.00in /  0mm
18:44 43.4 °F /  6.3 °C 30.8 °F /  -0.7 °C 30.02in /  1016.5hPa SSW 7.0mph /  11.3km/h 12.0mph /  19.3km/h 61% 0.00in /  0mm
18:49 43.2 °F /  6.2 °C 31.1 °F /  -0.5 °C 30.02in /  1016.5hPa SW 6.0mph /  9.7km/h 12.0mph /  19.3km/h 62% 0.00in /  0mm
18:54 43.0 °F /  6.1 °C 30.9 °F /  -0.6 °C 30.02in /  1016.5hPa SW 6.0mph /  9.7km/h 12.0mph /  19.3km/h 62% 0.00in /  0mm
18:59 42.6 °F /  5.9 °C 30.9 °F /  -0.6 °C 30.02in /  1016.5hPa SW 8.0mph /  12.9km/h 14.0mph /  22.5km/h 63% 0.00in /  0mm
19:04 42.3 °F /  5.7 °C 30.6 °F /  -0.8 °C 30.02in /  1016.5hPa SW 8.0mph /  12.9km/h 15.0mph /  24.1km/h 63% 0.00in /  0mm
19:09 42.1 °F /  5.6 °C 30.0 °F /  -1.1 °C 30.02in /  1016.5hPa WSW 7.0mph /  11.3km/h 15.0mph /  24.1km/h 62% 0.00in /  0mm
19:14 42.0 °F /  5.6 °C 29.9 °F /  -1.2 °C 30.01in /  1016.1hPa WSW 8.0mph /  12.9km/h 12.0mph /  19.3km/h 62% 0.00in /  0mm
19:19 41.9 °F /  5.5 °C 30.2 °F /  -1 °C 30.02in /  1016.5hPa SW 7.0mph /  11.3km/h 15.0mph /  24.1km/h 63% 0.00in /  0mm
19:24 41.8 °F /  5.4 °C 30.1 °F /  -1.1 °C 30.01in /  1016.1hPa WSW 7.0mph /  11.3km/h 13.0mph /  20.9km/h 63% 0.00in /  0mm
19:29 41.6 °F /  5.3 °C 30.3 °F /  -0.9 °C 30.01in /  1016.1hPa West 8.0mph /  12.9km/h 12.0mph /  19.3km/h 64% 0.00in /  0mm
19:34 41.5 °F /  5.3 °C 30.6 °F /  -0.8 °C 30.01in /  1016.1hPa WSW 10.0mph /  16.1km/h 11.0mph /  17.7km/h 65% 0.00in /  0mm
19:39 41.3 °F /  5.2 °C 30.4 °F /  -0.9 °C 30.02in /  1016.5hPa SW 7.0mph /  11.3km/h 11.0mph /  17.7km/h 65% 0.00in /  0mm
19:44 41.1 °F /  5.1 °C 30.6 °F /  -0.8 °C 30.02in /  1016.5hPa WSW 2.0mph /  3.2km/h 9.0mph /  14.5km/h 66% 0.00in /  0mm
19:49 40.9 °F /  4.9 °C 30.4 °F /  -0.9 °C 30.02in /  1016.5hPa SW 5.0mph /  8km/h 9.0mph /  14.5km/h 66% 0.00in /  0mm
19:54 40.7 °F /  4.8 °C 30.2 °F /  -1 °C 30.02in /  1016.5hPa SW 5.0mph /  8km/h 9.0mph /  14.5km/h 66% 0.00in /  0mm
19:59 40.6 °F /  4.8 °C 30.1 °F /  -1.1 °C 30.02in /  1016.5hPa SW 5.0mph /  8km/h 11.0mph /  17.7km/h 66% 0.00in /  0mm
20:04 40.5 °F /  4.7 °C 30.4 °F /  -0.9 °C 30.02in /  1016.5hPa SW 5.0mph /  8km/h 11.0mph /  17.7km/h 67% 0.00in /  0mm
20:09 40.4 °F /  4.7 °C 30.3 °F /  -0.9 °C 30.02in /  1016.5hPa SW 6.0mph /  9.7km/h 9.0mph /  14.5km/h 67% 0.00in /  0mm
20:14 40.2 °F /  4.6 °C 30.1 °F /  -1.1 °C 30.02in /  1016.5hPa West 3.0mph /  4.8km/h 12.0mph /  19.3km/h 67% 0.00in /  0mm
20:19 40.2 °F /  4.6 °C 29.7 °F /  -1.3 °C 30.02in /  1016.5hPa SW 5.0mph /  8km/h 12.0mph /  19.3km/h 66% 0.00in /  0mm
20:24 40.1 °F /  4.5 °C 29.6 °F /  -1.3 °C 30.02in /  1016.5hPa SW 5.0mph /  8km/h 10.0mph /  16.1km/h 66% 0.00in /  0mm
20:29 40.1 °F /  4.5 °C 29.6 °F /  -1.3 °C 30.02in /  1016.5hPa SW 4.0mph /  6.4km/h 10.0mph /  16.1km/h 66% 0.00in /  0mm
20:34 40.0 °F /  4.4 °C 29.9 °F /  -1.2 °C 30.03in /  1016.8hPa SW 2.0mph /  3.2km/h 8.0mph /  12.9km/h 67% 0.00in /  0mm
20:39 40.0 °F /  4.4 °C 29.9 °F /  -1.2 °C 30.03in /  1016.8hPa SW 5.0mph /  8km/h 10.0mph /  16.1km/h 67% 0.00in /  0mm
20:44 40.0 °F /  4.4 °C 29.9 °F /  -1.2 °C 30.03in /  1016.8hPa SW 3.0mph /  4.8km/h 9.0mph /  14.5km/h 67% 0.00in /  0mm
20:49 40.0 °F /  4.4 °C 30.3 °F /  -0.9 °C 30.03in /  1016.8hPa SW 6.0mph /  9.7km/h 7.0mph /  11.3km/h 68% 0.00in /  0mm
20:54 39.9 °F /  4.4 °C 30.2 °F /  -1 °C 30.03in /  1016.8hPa SW 4.0mph /  6.4km/h 9.0mph /  14.5km/h 68% 0.00in /  0mm
20:59 39.9 °F /  4.4 °C 30.2 °F /  -1 °C 30.03in /  1016.8hPa SW 4.0mph /  6.4km/h 10.0mph /  16.1km/h 68% 0.00in /  0mm
21:04 39.9 °F /  4.4 °C 30.2 °F /  -1 °C 30.03in /  1016.8hPa SW 3.0mph /  4.8km/h 8.0mph /  12.9km/h 68% 0.00in /  0mm
21:09 39.9 °F /  4.4 °C 30.2 °F /  -1 °C 30.03in /  1016.8hPa SW 4.0mph /  6.4km/h 8.0mph /  12.9km/h 68% 0.00in /  0mm
21:14 39.9 °F /  4.4 °C 30.2 °F /  -1 °C 30.04in /  1017.2hPa SSW 7.0mph /  11.3km/h 11.0mph /  17.7km/h 68% 0.00in /  0mm
21:19 39.9 °F /  4.4 °C 29.8 °F /  -1.2 °C 30.04in /  1017.2hPa SW 5.0mph /  8km/h 11.0mph /  17.7km/h 67% 0.00in /  0mm
21:24 40.0 °F /  4.4 °C 29.9 °F /  -1.2 °C 30.04in /  1017.2hPa SW 6.0mph /  9.7km/h 11.0mph /  17.7km/h 67% 0.00in /  0mm
21:29 40.0 °F /  4.4 °C 29.9 °F /  -1.2 °C 30.04in /  1017.2hPa SW 5.0mph /  8km/h 10.0mph /  16.1km/h 67% 0.00in /  0mm
21:34 40.0 °F /  4.4 °C 29.9 °F /  -1.2 °C 30.04in /  1017.2hPa SW 6.0mph /  9.7km/h 11.0mph /  17.7km/h 67% 0.00in /  0mm
21:39 40.0 °F /  4.4 °C 29.9 °F /  -1.2 °C 30.04in /  1017.2hPa SW 6.0mph /  9.7km/h 11.0mph /  17.7km/h 67% 0.00in /  0mm
21:44 39.9 °F /  4.4 °C 30.2 °F /  -1 °C 30.04in /  1017.2hPa SW 5.0mph /  8km/h 11.0mph /  17.7km/h 68% 0.00in /  0mm
21:49 39.9 °F /  4.4 °C 30.2 °F /  -1 °C 30.04in /  1017.2hPa South 5.0mph /  8km/h 8.0mph /  12.9km/h 68% 0.00in /  0mm
21:54 39.7 °F /  4.3 °C 30.0 °F /  -1.1 °C 30.04in /  1017.2hPa SW 3.0mph /  4.8km/h 8.0mph /  12.9km/h 68% 0.00in /  0mm
21:59 39.6 °F /  4.2 °C 30.3 °F /  -0.9 °C 30.05in /  1017.5hPa SSW 3.0mph /  4.8km/h 7.0mph /  11.3km/h 69% 0.00in /  0mm
22:04 39.5 °F /  4.2 °C 30.5 °F /  -0.8 °C 30.05in /  1017.5hPa SW 5.0mph /  8km/h 10.0mph /  16.1km/h 70% 0.00in /  0mm
22:09 39.5 °F /  4.2 °C 30.5 °F /  -0.8 °C 30.04in /  1017.2hPa SSW 2.0mph /  3.2km/h 7.0mph /  11.3km/h 70% 0.00in /  0mm
22:14 39.3 °F /  4.1 °C 30.7 °F /  -0.7 °C 30.04in /  1017.2hPa SW 2.0mph /  3.2km/h 7.0mph /  11.3km/h 71% 0.00in /  0mm
22:19 39.2 °F /  4 °C 30.6 °F /  -0.8 °C 30.04in /  1017.2hPa WSW 6.0mph /  9.7km/h 8.0mph /  12.9km/h 71% 0.00in /  0mm
22:24 39.2 °F /  4 °C 30.9 °F /  -0.6 °C 30.04in /  1017.2hPa WSW 5.0mph /  8km/h 9.0mph /  14.5km/h 72% 0.00in /  0mm
22:29 39.1 °F /  3.9 °C 30.8 °F /  -0.7 °C 30.05in /  1017.5hPa SW 4.0mph /  6.4km/h 9.0mph /  14.5km/h 72% 0.00in /  0mm
22:34 39.0 °F /  3.9 °C 31.1 °F /  -0.5 °C 30.04in /  1017.2hPa SW 4.0mph /  6.4km/h 8.0mph /  12.9km/h 73% 0.00in /  0mm
22:39 38.9 °F /  3.8 °C 31.0 °F /  -0.6 °C 30.04in /  1017.2hPa SW 4.0mph /  6.4km/h 10.0mph /  16.1km/h 73% 0.00in /  0mm
22:44 38.9 °F /  3.8 °C 31.0 °F /  -0.6 °C 30.04in /  1017.2hPa SW 4.0mph /  6.4km/h 10.0mph /  16.1km/h 73% 0.00in /  0mm
22:49 38.8 °F /  3.8 °C 30.9 °F /  -0.6 °C 30.04in /  1017.2hPa WSW 3.0mph /  4.8km/h 8.0mph /  12.9km/h 73% 0.00in /  0mm
22:54 38.8 °F /  3.8 °C 30.9 °F /  -0.6 °C 30.04in /  1017.2hPa SW 4.0mph /  6.4km/h 6.0mph /  9.7km/h 73% 0.00in /  0mm
22:59 38.7 °F /  3.7 °C 31.1 °F /  -0.5 °C 30.04in /  1017.2hPa SSW 1.0mph /  1.6km/h 5.0mph /  8km/h 74% 0.00in /  0mm
23:04 38.6 °F /  3.7 °C 31.0 °F /  -0.6 °C 30.04in /  1017.2hPa SW 2.0mph /  3.2km/h 6.0mph /  9.7km/h 74% 0.00in /  0mm
23:09 38.4 °F /  3.6 °C 30.8 °F /  -0.7 °C 30.04in /  1017.2hPa SW 2.0mph /  3.2km/h 7.0mph /  11.3km/h 74% 0.00in /  0mm
23:14 38.3 °F /  3.5 °C 31.1 °F /  -0.5 °C 30.04in /  1017.2hPa SW 2.0mph /  3.2km/h 5.0mph /  8km/h 75% 0.00in /  0mm
23:19 38.3 °F /  3.5 °C 31.1 °F /  -0.5 °C 30.04in /  1017.2hPa SW 4.0mph /  6.4km/h 7.0mph /  11.3km/h 75% 0.00in /  0mm
23:24 38.1 °F /  3.4 °C 30.9 °F /  -0.6 °C 30.04in /  1017.2hPa SSW 3.0mph /  4.8km/h 7.0mph /  11.3km/h 75% 0.00in /  0mm
23:29 38.1 °F /  3.4 °C 31.2 °F /  -0.4 °C 30.04in /  1017.2hPa SW 3.0mph /  4.8km/h 7.0mph /  11.3km/h 76% 0.00in /  0mm
23:34 37.9 °F /  3.3 °C 31.0 °F /  -0.6 °C 30.05in /  1017.5hPa SW 2.0mph /  3.2km/h 6.0mph /  9.7km/h 76% 0.00in /  0mm
23:39 37.8 °F /  3.2 °C 30.9 °F /  -0.6 °C 30.04in /  1017.2hPa SW 3.0mph /  4.8km/h 7.0mph /  11.3km/h 76% 0.00in /  0mm
23:44 37.7 °F /  3.2 °C 30.8 °F /  -0.7 °C 30.04in /  1017.2hPa SW 3.0mph /  4.8km/h 7.0mph /  11.3km/h 76% 0.00in /  0mm
23:49 37.7 °F /  3.2 °C 31.1 °F /  -0.5 °C 30.04in /  1017.2hPa SW 3.0mph /  4.8km/h 7.0mph /  11.3km/h 77% 0.00in /  0mm
23:54 37.8 °F /  3.2 °C 31.2 °F /  -0.4 °C 30.04in /  1017.2hPa WSW 2.0mph /  3.2km/h 6.0mph /  9.7km/h 77% 0.00in /  0mm
23:59 37.7 °F /  3.2 °C 31.1 °F /  -0.5 °C 30.04in /  1017.2hPa SSW 3.0mph /  4.8km/h 4.0mph /  6.4km/h 77% 0.00in /  0mm
Buffalo, New York, USA
Compliments of Weather Underground - 2.5 mb